Time;durP1;ratioP1;P1;durP2;ratioP2;P2;SDS_P1;SDS_P2;PMS_P1;PMS_P2;Temp;Humidity;BMP_temperature;BMP_pressure;BME280_temperature;BME280_humidity;BME280_pressure;Samples;Min_cycle;Max_cycle;Signal;HPM_P1;HPM_P2
2024/03/20 00:01:23;;;;;;;5.97;2.83;;;2.70;99.90;;;;;;8390825;28;20101;-82
2024/03/20 00:05:24;;;;;;;6.00;2.42;;;2.50;99.90;;;;;;8394946;28;20029;-83
2024/03/20 00:09:24;;;;;;;5.22;2.70;;;2.60;99.90;;;;;;8367435;28;20172;-82
2024/03/20 00:13:25;;;;;;;4.60;2.40;;;2.70;99.90;;;;;;8384185;28;20037;-82
2024/03/20 00:17:25;;;;;;;4.05;2.33;;;3.20;99.90;;;;;;8384353;28;20034;-83
2024/03/20 00:21:26;;;;;;;3.85;2.45;;;3.30;99.90;;;;;;8376316;28;20060;-82
2024/03/20 00:25:27;;;;;;;3.83;1.73;;;3.10;99.90;;;;;;8375975;28;20046;-83
2024/03/20 00:29:27;;;;;;;4.43;2.20;;;2.80;99.90;;;;;;8388007;28;20016;-83
2024/03/20 00:33:28;;;;;;;3.13;2.03;;;2.40;99.90;;;;;;8383908;28;20017;-83
2024/03/20 00:37:30;;;;;;;4.53;2.10;;;2.10;99.90;;;;;;8371584;28;20029;-82
2024/03/20 00:41:30;;;;;;;2.75;2.10;;;2.10;99.90;;;;;;8375168;28;20020;-83
2024/03/20 00:45:31;;;;;;;5.57;2.80;;;2.00;99.90;;;;;;8351525;28;20388;-82
2024/03/20 00:49:32;;;;;;;5.00;2.55;;;1.90;99.90;;;;;;8362816;28;20048;-83
2024/03/20 00:53:33;;;;;;;5.38;2.65;;;2.00;99.90;;;;;;8349279;28;20031;-83
2024/03/20 00:57:33;;;;;;;4.63;2.20;;;2.20;99.90;;;;;;8363776;28;20065;-83
2024/03/20 01:01:34;;;;;;;4.22;2.15;;;2.10;99.90;;;;;;8368096;28;20524;-83
2024/03/20 01:05:34;;;;;;;4.10;2.22;;;2.00;99.90;;;;;;8374036;28;20033;-83
2024/03/20 01:09:35;;;;;;;3.33;2.17;;;2.00;99.90;;;;;;8378518;28;20064;-82
2024/03/20 01:13:35;;;;;;;5.88;2.72;;;2.00;99.90;;;;;;8383639;28;20025;-82
2024/03/20 01:17:36;;;;;;;7.40;3.10;;;1.90;99.90;;;;;;8374006;28;20137;-83
2024/03/20 01:21:36;;;;;;;4.72;2.85;;;1.90;99.90;;;;;;8380115;28;20027;-82
2024/03/20 01:25:37;;;;;;;6.85;2.92;;;1.90;99.90;;;;;;8360865;28;20036;-83
2024/03/20 01:29:37;;;;;;;4.75;2.75;;;1.90;99.90;;;;;;8374369;28;20540;-82
2024/03/20 01:33:38;;;;;;;6.30;2.80;;;1.90;99.90;;;;;;8375896;28;20074;-83
2024/03/20 01:37:39;;;;;;;6.28;3.05;;;1.90;99.90;;;;;;8381308;28;20402;-83
2024/03/20 01:41:39;;;;;;;5.38;3.03;;;1.80;99.90;;;;;;8371578;28;20020;-83
2024/03/20 01:45:40;;;;;;;7.75;2.75;;;1.70;99.90;;;;;;8371297;28;20086;-83
2024/03/20 01:49:40;;;;;;;3.80;2.13;;;1.60;99.90;;;;;;8354092;28;20033;-83
2024/03/20 01:53:41;;;;;;;5.35;2.50;;;1.40;99.90;;;;;;8353308;28;20032;-82
2024/03/20 01:57:42;;;;;;;5.25;2.92;;;1.50;99.90;;;;;;8384666;28;20489;-83
2024/03/20 02:01:42;;;;;;;4.88;2.40;;;1.60;99.90;;;;;;8360755;28;20107;-83
2024/03/20 02:05:43;;;;;;;5.95;3.08;;;1.60;99.90;;;;;;8378752;28;20033;-83
2024/03/20 02:09:44;;;;;;;5.07;2.50;;;1.60;99.90;;;;;;8375486;28;20033;-83
2024/03/20 02:13:48;;;;;;;4.13;2.53;;;1.50;99.90;;;;;;8365683;28;20079;-83
2024/03/20 02:17:49;;;;;;;5.28;2.45;;;1.40;99.90;;;;;;8374385;28;20099;-83
2024/03/20 02:21:49;;;;;;;4.55;2.47;;;1.40;99.90;;;;;;8338534;28;20025;-83
2024/03/20 02:25:50;;;;;;;6.88;2.78;;;1.50;99.90;;;;;;8378756;28;20021;-82
2024/03/20 02:29:50;;;;;;;6.18;2.95;;;1.50;99.90;;;;;;8373214;28;20567;-83
2024/03/20 02:33:53;;;;;;;8.98;3.47;;;1.60;99.90;;;;;;8351431;28;20055;-83
2024/03/20 02:37:53;;;;;;;8.68;3.25;;;1.50;99.90;;;;;;8374849;28;20033;-83
2024/03/20 02:41:54;;;;;;;5.82;2.72;;;1.40;99.90;;;;;;8352691;28;20024;-83
2024/03/20 02:45:55;;;;;;;6.72;2.72;;;1.40;99.90;;;;;;8366678;28;20018;-84
2024/03/20 02:49:56;;;;;;;5.30;2.83;;;1.50;99.90;;;;;;8355333;28;20020;-84
2024/03/20 02:53:57;;;;;;;5.90;3.10;;;1.40;99.90;;;;;;8372487;28;20420;-83
2024/03/20 02:57:57;;;;;;;5.95;2.92;;;1.40;99.90;;;;;;8351705;28;20029;-84
2024/03/20 03:01:58;;;;;;;7.93;3.47;;;1.40;99.90;;;;;;8355913;28;20029;-82
2024/03/20 03:05:58;;;;;;;4.70;2.55;;;1.50;99.90;;;;;;8378376;28;20025;-84
2024/03/20 03:09:59;;;;;;;7.00;2.83;;;1.50;99.90;;;;;;8377094;28;20021;-84
2024/03/20 03:13:59;;;;;;;6.25;2.97;;;1.40;99.90;;;;;;8372991;28;20135;-84
2024/03/20 03:18:00;;;;;;;4.25;2.35;;;1.40;99.90;;;;;;8375522;28;20017;-83
2024/03/20 03:22:00;;;;;;;5.75;2.65;;;1.40;99.90;;;;;;8363696;28;20025;-85
2024/03/20 03:26:02;;;;;;;5.22;2.75;;;1.40;99.90;;;;;;8376018;28;20036;-84
2024/03/20 03:30:04;;;;;;;5.43;2.85;;;1.40;99.90;;;;;;8370099;28;20021;-83
2024/03/20 03:34:05;;;;;;;6.60;3.15;;;1.50;99.90;;;;;;8384296;28;20029;-84
2024/03/20 03:38:05;;;;;;;5.75;3.28;;;1.50;99.90;;;;;;8377554;28;20111;-84
2024/03/20 03:42:06;;;;;;;6.47;3.85;;;1.40;99.90;;;;;;8360492;28;20601;-84
2024/03/20 03:46:07;;;;;;;4.60;2.80;;;1.40;99.90;;;;;;8341704;28;20064;-84
2024/03/20 03:50:08;;;;;;;6.00;3.00;;;1.50;99.90;;;;;;8383339;28;20020;-85
2024/03/20 03:54:09;;;;;;;6.03;2.95;;;1.50;99.90;;;;;;8370360;28;20405;-84
2024/03/20 03:58:09;;;;;;;8.30;3.30;;;1.40;99.90;;;;;;8377758;28;20501;-84
2024/03/20 04:02:11;;;;;;;6.95;3.08;;;1.30;99.90;;;;;;8340655;28;20040;-84
2024/03/20 04:06:11;;;;;;;4.60;2.55;;;1.20;99.90;;;;;;8391526;28;20090;-85
2024/03/20 04:10:12;;;;;;;5.82;2.95;;;1.10;99.90;;;;;;8378966;28;20441;-84
2024/03/20 04:14:15;;;;;;;5.88;2.97;;;1.10;99.90;;;;;;8378997;28;20059;-84
2024/03/20 04:18:17;;;;;;;5.85;2.95;;;1.10;99.90;;;;;;8377586;28;20115;-84
2024/03/20 04:22:17;;;;;;;5.43;2.80;;;0.90;99.90;;;;;;8381438;28;20108;-84
2024/03/20 04:26:19;;;;;;;6.30;3.20;;;0.90;99.90;;;;;;8371852;28;20457;-84
2024/03/20 04:30:19;;;;;;;5.95;3.10;;;0.90;99.90;;;;;;8365013;28;20059;-85
2024/03/20 04:34:20;;;;;;;6.68;3.17;;;1.10;99.90;;;;;;8366733;28;20029;-84
2024/03/20 04:38:21;;;;;;;4.53;2.95;;;1.10;99.90;;;;;;8377691;28;20028;-84
2024/03/20 04:42:21;;;;;;;6.35;2.83;;;1.00;99.90;;;;;;8356805;28;20017;-85
2024/03/20 04:46:22;;;;;;;4.45;2.20;;;0.80;99.90;;;;;;8366473;28;20032;-85
2024/03/20 04:50:22;;;;;;;5.50;3.13;;;0.50;99.90;;;;;;8389382;28;20025;-84
2024/03/20 04:54:23;;;;;;;6.13;3.10;;;0.50;99.90;;;;;;8373392;28;20040;-84
2024/03/20 04:58:23;;;;;;;7.18;3.25;;;0.40;99.90;;;;;;8375898;28;20025;-85
2024/03/20 05:02:24;;;;;;;7.05;2.97;;;0.30;99.90;;;;;;8376867;28;20074;-85
2024/03/20 05:06:25;;;;;;;12.43;3.65;;;0.30;99.90;;;;;;8378841;28;20061;-85
2024/03/20 05:10:25;;;;;;;4.72;2.80;;;0.30;99.90;;;;;;8357043;28;20025;-84
2024/03/20 05:14:26;;;;;;;6.70;3.70;;;0.20;99.90;;;;;;8380672;28;20036;-85
2024/03/20 05:18:26;;;;;;;5.45;2.72;;;0.20;99.90;;;;;;8379221;28;20024;-85
2024/03/20 05:22:27;;;;;;;7.38;3.05;;;0.20;99.90;;;;;;8370041;28;20028;-84
2024/03/20 05:26:27;;;;;;;4.28;2.85;;;0.20;99.90;;;;;;8366954;28;20401;-85
2024/03/20 05:30:28;;;;;;;6.47;2.72;;;0.10;99.90;;;;;;8376339;28;20021;-85
2024/03/20 05:34:28;;;;;;;4.93;3.20;;;0.10;99.90;;;;;;8381805;28;20104;-85
2024/03/20 05:38:29;;;;;;;4.63;2.92;;;0.20;99.90;;;;;;8381469;28;20029;-85
2024/03/20 05:42:30;;;;;;;5.43;2.97;;;0.00;99.90;;;;;;8368743;28;20048;-84
2024/03/20 05:46:32;;;;;;;7.20;3.47;;;0.00;99.90;;;;;;8378325;28;20029;-85
2024/03/20 05:50:32;;;;;;;6.35;2.97;;;0.10;99.90;;;;;;8378868;28;20028;-84
2024/03/20 05:54:33;;;;;;;5.88;3.28;;;0.20;99.90;;;;;;8374928;28;20028;-84
2024/03/20 05:58:34;;;;;;;5.88;2.85;;;0.30;99.90;;;;;;8382832;28;20037;-84
2024/03/20 06:02:35;;;;;;;7.13;3.20;;;0.50;99.90;;;;;;8357342;28;20112;-84
2024/03/20 06:06:35;;;;;;;7.75;3.58;;;0.60;99.90;;;;;;8376602;28;20028;-84
2024/03/20 06:10:36;;;;;;;6.93;3.30;;;0.70;99.90;;;;;;8354884;28;20024;-85
2024/03/20 06:14:37;;;;;;;8.65;3.63;;;0.80;99.90;;;;;;8370591;28;20056;-85
2024/03/20 06:18:38;;;;;;;8.30;3.58;;;0.90;99.90;;;;;;8351407;28;20029;-85
2024/03/20 06:22:38;;;;;;;7.45;3.58;;;1.10;99.90;;;;;;8363292;28;20020;-85
2024/03/20 06:26:39;;;;;;;9.27;3.17;;;1.20;99.90;;;;;;8350636;28;20504;-85
2024/03/20 06:30:39;;;;;;;5.88;3.45;;;1.70;99.90;;;;;;8368481;28;20032;-85
2024/03/20 06:34:40;;;;;;;6.50;3.28;;;1.90;99.90;;;;;;8375936;28;20033;-85
2024/03/20 06:38:40;;;;;;;5.90;3.10;;;1.70;99.90;;;;;;8354875;28;20025;-85
2024/03/20 06:42:41;;;;;;;6.20;3.28;;;2.00;99.90;;;;;;8357107;28;20028;-84
2024/03/20 06:46:42;;;;;;;6.70;3.22;;;2.20;99.90;;;;;;8371378;28;20058;-85
2024/03/20 06:50:47;;;;;;;7.07;3.33;;;2.50;99.90;;;;;;8348499;28;20044;-85
2024/03/20 06:54:49;;;;;;;5.60;2.83;;;2.50;99.90;;;;;;8360932;28;20033;-85
2024/03/20 06:58:49;;;;;;;5.63;3.33;;;2.40;99.90;;;;;;8369581;28;20503;-85
2024/03/20 07:02:50;;;;;;;5.63;3.00;;;2.40;99.90;;;;;;8373007;28;20036;-84
2024/03/20 07:06:51;;;;;;;5.90;3.58;;;2.80;99.90;;;;;;8373162;28;20445;-83
2024/03/20 07:10:52;;;;;;;6.95;3.42;;;3.10;99.90;;;;;;8354363;28;20028;-85
2024/03/20 07:14:52;;;;;;;6.25;3.25;;;3.20;99.90;;;;;;8373653;28;20056;-86
2024/03/20 07:18:53;;;;;;;8.80;4.32;;;3.20;99.90;;;;;;8354422;28;20029;-85
2024/03/20 07:22:54;;;;;;;6.72;3.42;;;3.60;99.90;;;;;;8351008;28;20037;-85
2024/03/20 07:26:54;;;;;;;6.97;3.70;;;3.80;99.90;;;;;;8348855;28;20025;-85
2024/03/20 07:30:55;;;;;;;7.45;4.20;;;3.70;99.90;;;;;;8347711;28;20393;-85
2024/03/20 07:34:56;;;;;;;6.18;3.63;;;4.00;99.90;;;;;;8355385;28;20032;-85
2024/03/20 07:38:57;;;;;;;5.65;3.13;;;4.30;99.90;;;;;;8356464;28;20056;-85
2024/03/20 07:42:59;;;;;;;4.65;3.22;;;4.60;99.90;;;;;;8357858;28;20033;-85
2024/03/20 07:47:00;;;;;;;5.43;3.70;;;4.80;99.90;;;;;;8373190;28;20056;-85
2024/03/20 07:51:00;;;;;;;4.90;3.10;;;4.90;99.90;;;;;;8363825;28;20025;-86
2024/03/20 07:55:02;;;;;;;5.65;3.40;;;5.10;99.90;;;;;;8352977;28;20021;-85
2024/03/20 07:59:03;;;;;;;4.68;2.72;;;5.30;99.90;;;;;;8372512;28;20051;-86
2024/03/20 08:03:03;;;;;;;4.10;2.33;;;5.70;99.90;;;;;;8385156;28;20036;-86
2024/03/20 08:07:06;;;;;;;5.03;2.40;;;5.80;99.90;;;;;;8365258;28;20053;-85
2024/03/20 08:11:06;;;;;;;4.18;2.60;;;6.10;99.90;;;;;;8380456;28;20066;-86
2024/03/20 08:15:07;;;;;;;6.32;2.45;;;6.30;99.90;;;;;;8370375;28;20098;-85
2024/03/20 08:19:08;;;;;;;4.18;2.65;;;7.00;99.90;;;;;;8380372;28;20108;-85
2024/03/20 08:23:09;;;;;;;4.13;2.70;;;7.60;99.90;;;;;;8376198;28;20045;-85
2024/03/20 08:27:10;;;;;;;3.38;2.40;;;7.50;99.90;;;;;;8379742;28;20052;-85
2024/03/20 08:31:11;;;;;;;3.63;2.30;;;7.90;99.90;;;;;;8351100;28;20083;-85
2024/03/20 08:35:12;;;;;;;3.88;2.20;;;8.10;99.90;;;;;;8364654;28;20091;-85
2024/03/20 08:39:13;;;;;;;3.83;2.10;;;8.60;99.90;;;;;;8351808;28;20025;-85
2024/03/20 08:43:14;;;;;;;5.40;2.90;;;9.00;99.90;;;;;;8351957;28;20036;-85
2024/03/20 08:47:14;;;;;;;3.65;2.53;;;9.20;99.90;;;;;;8349486;28;20378;-84
2024/03/20 08:51:15;;;;;;;3.75;2.35;;;9.30;99.90;;;;;;8367816;28;20040;-86
2024/03/20 08:55:15;;;;;;;3.75;2.60;;;9.30;99.90;;;;;;8374086;28;20044;-84
2024/03/20 08:59:16;;;;;;;4.47;2.33;;;9.80;99.90;;;;;;8372293;28;20513;-85
2024/03/20 09:03:16;;;;;;;3.05;1.90;;;9.90;99.90;;;;;;8374422;28;20049;-85
2024/03/20 09:07:17;;;;;;;3.58;2.20;;;10.50;99.90;;;;;;8379885;28;20029;-86
2024/03/20 09:11:19;;;;;;;3.38;2.25;;;10.60;99.90;;;;;;8378113;28;20048;-85
2024/03/20 09:15:19;;;;;;;3.17;1.95;;;11.00;99.90;;;;;;8371858;28;20029;-85
2024/03/20 09:19:20;;;;;;;2.75;1.80;;;11.10;99.90;;;;;;8373610;28;20039;-84
2024/03/20 09:23:22;;;;;;;3.15;2.03;;;11.40;99.90;;;;;;8363931;28;20037;-84
2024/03/20 09:27:23;;;;;;;3.78;1.65;;;11.60;99.90;;;;;;8385978;28;20127;-85
2024/03/20 09:31:25;;;;;;;2.70;1.52;;;12.00;99.90;;;;;;8375285;28;20049;-85
2024/03/20 09:35:25;;;;;;;2.17;1.60;;;12.60;99.90;;;;;;8339653;28;20029;-85
2024/03/20 09:39:26;;;;;;;2.92;1.67;;;13.10;99.90;;;;;;8346856;28;20582;-85
2024/03/20 09:43:26;;;;;;;2.20;1.67;;;13.40;99.90;;;;;;8348020;28;20095;-84
2024/03/20 09:47:28;;;;;;;2.25;1.42;;;14.10;99.90;;;;;;8373566;28;20037;-85
2024/03/20 09:51:29;;;;;;;2.35;1.42;;;14.40;99.90;;;;;;8388011;28;20029;-85
2024/03/20 09:55:29;;;;;;;1.33;1.02;;;14.90;99.90;;;;;;8349439;28;20032;-85
2024/03/20 09:59:30;;;;;;;1.20;1.10;;;15.40;99.90;;;;;;8362618;28;20055;-83
2024/03/20 10:03:30;;;;;;;1.70;1.10;;;15.50;99.90;;;;;;8363612;28;20033;-85
2024/03/20 10:07:31;;;;;;;1.45;1.35;;;15.80;99.90;;;;;;8353681;28;20020;-84
2024/03/20 10:11:32;;;;;;;2.35;1.15;;;16.10;99.90;;;;;;8365884;28;20067;-84
2024/03/20 10:15:32;;;;;;;1.30;1.10;;;16.60;99.90;;;;;;8378739;28;20443;-85
2024/03/20 10:19:35;;;;;;;1.30;0.95;;;16.90;99.90;;;;;;8388786;28;20078;-85
2024/03/20 10:23:41;;;;;;;0.80;0.77;;;17.30;99.90;;;;;;8373402;28;20496;-85
2024/03/20 10:27:43;;;;;;;1.25;0.80;;;18.20;99.90;;;;;;8377902;28;20485;-85
2024/03/20 10:31:44;;;;;;;1.58;1.08;;;18.90;99.90;;;;;;8367518;28;20033;-85
2024/03/20 10:35:53;;;;;;;1.58;0.98;;;19.30;99.90;;;;;;8362834;28;20032;-85
2024/03/20 10:39:55;;;;;;;2.15;0.70;;;19.10;99.90;;;;;;8364603;28;20029;-85
2024/03/20 10:43:57;;;;;;;1.70;0.77;;;18.80;99.90;;;;;;8376072;28;20024;-85
2024/03/20 10:47:58;;;;;;;2.22;0.65;;;18.50;99.90;;;;;;8379651;28;20013;-85
2024/03/20 10:51:59;;;;;;;0.93;0.80;;;18.70;99.90;;;;;;8382140;28;20154;-85
2024/03/20 10:56:00;;;;;;;1.67;0.70;;;18.90;99.90;;;;;;8352991;28;20020;-85
2024/03/20 11:00:01;;;;;;;1.73;0.60;;;19.30;99.90;;;;;;8378707;28;20020;-85
2024/03/20 11:04:01;;;;;;;1.50;0.90;;;19.90;99.90;;;;;;8375543;28;20025;-85
2024/03/20 11:08:04;;;;;;;0.60;0.60;;;20.20;99.90;;;;;;8358972;28;20027;-85
2024/03/20 11:12:25;;;;;;;1.38;0.73;;;20.10;99.90;;;;;;8376146;28;20056;-85
2024/03/20 11:16:28;;;;;;;1.40;0.70;;;20.30;99.90;;;;;;8379570;28;20037;-84
2024/03/20 11:20:31;;;;;;;1.20;0.80;;;20.90;98.50;;;;;;8357820;28;20028;-84
2024/03/20 11:24:34;;;;;;;0.75;0.70;;;21.20;98.60;;;;;;8360147;28;20024;-85
2024/03/20 11:28:34;;;;;;;1.10;0.80;;;21.80;96.40;;;;;;8376153;28;20046;-85
2024/03/20 11:32:36;;;;;;;1.52;0.63;;;21.40;94.50;;;;;;8386211;28;20024;-85
2024/03/20 11:36:36;;;;;;;0.82;0.80;;;21.60;96.10;;;;;;8360090;28;20561;-85
2024/03/20 11:40:38;;;;;;;0.60;0.55;;;22.00;94.80;;;;;;8383167;28;20040;-84
2024/03/20 11:44:40;;;;;;;1.02;0.63;;;22.50;92.60;;;;;;8372090;28;20028;-85
2024/03/20 11:48:41;;;;;;;0.82;0.73;;;23.60;91.70;;;;;;8373539;28;20040;-85
2024/03/20 11:52:41;;;;;;;0.98;0.82;;;24.20;88.40;;;;;;8371486;28;20025;-85
2024/03/20 11:56:42;;;;;;;1.20;0.85;;;23.30;91.20;;;;;;8376031;28;20017;-85
2024/03/20 12:00:42;;;;;;;0.82;0.82;;;23.00;90.40;;;;;;8357966;28;20037;-84
2024/03/20 12:04:43;;;;;;;1.30;0.70;;;23.40;88.10;;;;;;8386474;28;20061;-85
2024/03/20 12:08:47;;;;;;;1.27;0.80;;;23.30;90.90;;;;;;8373716;28;20028;-85
2024/03/20 12:12:47;;;;;;;0.60;0.60;;;23.80;91.00;;;;;;8361986;28;20457;-85
2024/03/20 12:16:48;;;;;;;0.57;0.55;;;25.20;82.00;;;;;;8376443;28;20147;-85
2024/03/20 12:20:48;;;;;;;0.63;0.50;;;26.30;84.00;;;;;;8356151;28;20547;-85
2024/03/20 12:24:51;;;;;;;0.77;0.60;;;26.50;79.60;;;;;;8375834;28;20025;-85
2024/03/20 12:28:52;;;;;;;1.23;0.60;;;25.70;75.90;;;;;;8366728;28;20428;-84
2024/03/20 12:32:52;;;;;;;0.80;0.70;;;25.40;70.40;;;;;;8385067;28;20028;-85
2024/03/20 12:36:53;;;;;;;0.90;0.70;;;25.00;73.40;;;;;;8378382;28;20025;-85
2024/03/20 12:40:54;;;;;;;1.13;0.68;;;25.70;70.50;;;;;;8364126;28;20036;-85
2024/03/20 12:44:54;;;;;;;0.98;0.70;;;25.70;69.90;;;;;;8357063;28;20043;-85
2024/03/20 12:48:55;;;;;;;0.70;0.60;;;25.40;70.40;;;;;;8358938;28;20026;-86
2024/03/20 12:52:56;;;;;;;0.90;0.70;;;24.90;70.60;;;;;;8355316;28;20683;-85
2024/03/20 12:56:57;;;;;;;1.92;0.63;;;24.20;76.20;;;;;;8349133;28;20021;-85
2024/03/20 13:00:57;;;;;;;0.80;0.70;;;22.00;84.50;;;;;;8357317;28;20070;-85
2024/03/20 13:04:58;;;;;;;0.82;0.60;;;22.30;87.60;;;;;;8349349;28;20470;-85
2024/03/20 13:08:59;;;;;;;2.33;0.98;;;22.80;85.70;;;;;;8311501;28;20022;-85
2024/03/20 13:13:04;;;;;;;1.23;0.60;;;23.60;78.10;;;;;;8311597;28;20041;-85
2024/03/20 13:17:12;;;;;;;0.90;0.70;;;24.50;73.30;;;;;;8319504;28;20029;-85
2024/03/20 13:21:24;;;;;;;1.05;0.90;;;23.40;72.80;;;;;;8318542;28;20410;-86
2024/03/20 13:25:29;;;;;;;0.77;0.68;;;23.80;79.10;;;;;;8329662;28;20026;-85
2024/03/20 13:29:30;;;;;;;1.50;1.00;;;25.30;72.70;;;;;;8314423;28;20017;-85
2024/03/20 13:33:32;;;;;;;0.80;0.80;;;26.80;68.20;;;;;;8335891;28;20040;-86
2024/03/20 13:37:33;;;;;;;0.82;0.70;;;27.30;70.50;;;;;;8311878;28;20463;-85
2024/03/20 13:41:45;;;;;;;0.80;0.80;;;27.20;72.70;;;;;;8315333;28;20033;-85
2024/03/20 13:45:55;;;;;;;0.90;0.80;;;28.00;66.10;;;;;;8314202;28;20108;-86
2024/03/20 13:49:56;;;;;;;0.90;0.68;;;27.80;70.20;;;;;;8309412;28;20585;-86
2024/03/20 13:53:56;;;;;;;0.40;0.40;;;28.40;64.90;;;;;;8327842;28;20041;-85
2024/03/20 13:57:57;;;;;;;0.73;0.50;;;26.00;64.10;;;;;;8331776;28;20064;-85
2024/03/20 14:01:58;;;;;;;0.50;0.50;;;25.30;64.70;;;;;;8312767;28;20394;-84
2024/03/20 14:05:59;;;;;;;1.05;0.70;;;23.60;69.90;;;;;;8366182;28;20040;-85
2024/03/20 14:09:59;;;;;;;0.57;0.50;;;22.60;71.10;;;;;;8363388;28;20029;-84
2024/03/20 14:14:00;;;;;;;0.77;0.63;;;21.60;81.00;;;;;;8355199;28;20032;-84
2024/03/20 14:18:02;;;;;;;1.15;0.70;;;21.40;79.90;;;;;;8361157;28;20059;-85
2024/03/20 14:22:02;;;;;;;0.68;0.45;;;22.30;76.00;;;;;;8354974;28;20440;-85
2024/03/20 14:26:03;;;;;;;1.13;0.73;;;22.90;73.60;;;;;;8358521;28;20211;-85
2024/03/20 14:30:04;;;;;;;2.05;0.60;;;22.40;73.80;;;;;;8370936;28;20047;-85
2024/03/20 14:34:05;;;;;;;0.82;0.55;;;22.50;72.90;;;;;;8378054;28;20080;-85
2024/03/20 14:38:30;;;;;;;0.73;0.50;;;24.30;72.50;;;;;;8351628;28;20539;-86
2024/03/20 14:42:26;;;;;;;0.88;0.73;;;24.30;70.90;;;;;;8362200;28;20536;-85
2024/03/20 14:46:27;;;;;;;0.70;0.60;;;23.90;68.20;;;;;;8350223;28;20037;-86
2024/03/20 14:50:28;;;;;;;0.55;0.55;;;23.70;70.70;;;;;;8359151;28;20021;-85
2024/03/20 14:54:28;;;;;;;1.63;0.68;;;22.50;71.20;;;;;;8355743;28;20025;-85
2024/03/20 14:58:29;;;;;;;0.80;0.77;;;22.60;78.70;;;;;;8375407;28;20086;-85
2024/03/20 15:02:30;;;;;;;0.68;0.60;;;22.80;74.30;;;;;;8377368;28;20021;-86
2024/03/20 15:06:31;;;;;;;0.82;0.50;;;22.50;73.70;;;;;;8370310;28;20036;-85
2024/03/20 15:10:32;;;;;;;0.70;0.60;;;22.40;76.80;;;;;;8349720;28;20021;-85
2024/03/20 15:14:33;;;;;;;0.45;0.45;;;22.20;73.00;;;;;;8349930;28;20056;-85
2024/03/20 15:18:33;;;;;;;0.57;0.57;;;21.80;79.30;;;;;;8369962;28;20036;-85
2024/03/20 15:22:34;;;;;;;1.20;0.85;;;21.20;83.40;;;;;;8350368;28;20043;-86
2024/03/20 15:26:34;;;;;;;0.65;0.60;;;20.70;80.60;;;;;;8346649;28;20119;-86
2024/03/20 15:30:35;;;;;;;0.93;0.77;;;20.10;88.90;;;;;;8343399;28;20033;-85
2024/03/20 15:34:36;;;;;;;0.98;0.70;;;19.40;86.30;;;;;;8367137;28;20025;-85
2024/03/20 15:38:37;;;;;;;2.53;2.33;;;19.10;85.70;;;;;;8366148;28;20051;-85
2024/03/20 15:42:37;;;;;;;2.03;1.40;;;19.10;85.70;;;;;;8361340;28;20067;-85
2024/03/20 15:46:38;;;;;;;1.20;1.00;;;18.90;88.60;;;;;;8348708;28;20029;-85
2024/03/20 15:50:38;;;;;;;1.10;0.90;;;18.90;90.40;;;;;;8369314;28;20439;-85
2024/03/20 15:54:39;;;;;;;1.30;0.95;;;18.60;89.10;;;;;;8361000;28;20122;-85
2024/03/20 15:58:40;;;;;;;0.80;0.80;;;18.50;92.70;;;;;;8342929;28;20021;-85
2024/03/20 16:02:41;;;;;;;1.55;0.75;;;18.40;90.60;;;;;;8373559;28;20627;-85
2024/03/20 16:06:41;;;;;;;1.42;1.00;;;18.40;89.10;;;;;;8364727;28;20029;-85
2024/03/20 16:10:42;;;;;;;1.45;1.00;;;19.20;90.20;;;;;;8354481;28;20063;-84
2024/03/20 16:14:43;;;;;;;1.15;0.77;;;20.60;84.50;;;;;;8380777;28;20028;-86
2024/03/20 16:18:44;;;;;;;1.13;0.85;;;21.60;82.60;;;;;;8375419;28;20553;-86
2024/03/20 16:22:45;;;;;;;1.40;1.00;;;21.40;86.20;;;;;;8367947;28;20409;-85
2024/03/20 16:26:45;;;;;;;1.30;1.10;;;21.00;82.00;;;;;;8352451;28;20078;-85
2024/03/20 16:30:48;;;;;;;1.95;1.48;;;20.50;88.70;;;;;;8371029;28;20021;-85
2024/03/20 16:34:48;;;;;;;1.48;1.10;;;19.50;91.40;;;;;;8369126;28;20029;-84
2024/03/20 16:38:49;;;;;;;1.48;1.30;;;18.20;92.10;;;;;;8349310;28;20444;-84
2024/03/20 16:42:50;;;;;;;1.50;1.23;;;17.30;95.90;;;;;;8369666;28;20021;-85
2024/03/20 16:46:50;;;;;;;2.90;1.17;;;16.70;98.00;;;;;;8365637;28;20035;-85
2024/03/20 16:50:51;;;;;;;1.83;1.52;;;16.20;99.60;;;;;;8346792;28;20329;-84
2024/03/20 16:54:53;;;;;;;2.83;1.23;;;15.70;99.90;;;;;;8367299;28;20029;-85
2024/03/20 16:58:53;;;;;;;2.40;1.10;;;15.40;99.90;;;;;;8365673;28;20516;-85
2024/03/20 17:02:56;;;;;;;2.95;1.50;;;15.00;99.90;;;;;;8361512;28;20032;-84
2024/03/20 17:06:56;;;;;;;3.42;1.23;;;14.70;99.90;;;;;;8368884;28;20045;-85
2024/03/20 17:10:57;;;;;;;2.78;1.55;;;14.40;99.90;;;;;;8349883;28;20021;-84
2024/03/20 17:15:00;;;;;;;2.72;1.42;;;14.10;99.90;;;;;;8362960;28;20024;-85
2024/03/20 17:19:00;;;;;;;2.60;1.30;;;13.90;99.90;;;;;;8353171;28;20474;-85
2024/03/20 17:23:01;;;;;;;1.70;0.95;;;13.70;99.90;;;;;;8371436;28;20067;-84
2024/03/20 17:27:01;;;;;;;1.17;0.80;;;13.20;99.90;;;;;;8376078;28;20477;-85
2024/03/20 17:31:02;;;;;;;2.13;0.98;;;12.90;99.90;;;;;;8348268;28;20069;-85
2024/03/20 17:35:03;;;;;;;1.33;0.88;;;12.40;99.90;;;;;;8377461;28;20488;-84
2024/03/20 17:39:07;;;;;;;2.70;1.02;;;12.10;99.90;;;;;;8368147;28;20031;-85
2024/03/20 17:43:07;;;;;;;1.10;0.88;;;11.70;99.90;;;;;;8357169;28;20028;-85
2024/03/20 17:47:08;;;;;;;2.45;0.90;;;11.50;99.90;;;;;;8373474;28;20021;-85
2024/03/20 17:51:08;;;;;;;1.20;0.80;;;11.20;99.90;;;;;;8366564;28;20104;-85
2024/03/20 17:55:09;;;;;;;1.15;0.90;;;11.10;99.90;;;;;;8353005;28;20036;-84
2024/03/20 17:59:10;;;;;;;1.42;0.90;;;10.80;99.90;;;;;;8346475;28;20028;-84
2024/03/20 18:03:11;;;;;;;2.15;0.93;;;10.70;99.90;;;;;;8372750;28;20036;-84
2024/03/20 18:07:11;;;;;;;2.22;0.80;;;10.50;99.90;;;;;;8368430;28;20375;-85
2024/03/20 18:11:12;;;;;;;1.00;0.77;;;10.50;99.90;;;;;;8355804;28;20013;-85
2024/03/20 18:15:16;;;;;;;3.20;1.20;;;10.30;99.90;;;;;;8368424;28;20114;-84
2024/03/20 18:19:17;;;;;;;3.95;1.20;;;10.10;99.90;;;;;;8370902;28;20024;-85
2024/03/20 18:23:18;;;;;;;4.60;1.52;;;9.90;99.90;;;;;;8356799;28;20033;-85
2024/03/20 18:27:18;;;;;;;30.20;12.85;;;9.70;99.90;;;;;;8355185;28;20029;-84
2024/03/20 18:31:19;;;;;;;13.20;6.53;;;9.70;99.90;;;;;;8360009;28;20044;-85
2024/03/20 18:35:19;;;;;;;14.05;5.88;;;9.60;99.90;;;;;;8367496;28;20059;-85
2024/03/20 18:39:21;;;;;;;16.40;6.28;;;9.50;99.90;;;;;;8383093;28;20040;-84
2024/03/20 18:43:23;;;;;;;10.45;4.55;;;9.30;99.90;;;;;;8378303;28;20507;-85
2024/03/20 18:47:23;;;;;;;10.43;4.95;;;9.00;99.90;;;;;;8378539;28;20048;-84
2024/03/20 18:51:24;;;;;;;9.60;3.67;;;8.90;99.90;;;;;;8375196;28;20489;-85
2024/03/20 18:55:24;;;;;;;4.95;2.72;;;8.90;99.90;;;;;;8369379;28;20036;-85
2024/03/20 18:59:25;;;;;;;2.58;1.58;;;9.00;99.90;;;;;;8369027;28;20049;-85
2024/03/20 19:03:26;;;;;;;3.95;1.52;;;8.80;99.90;;;;;;8363307;28;20032;-85
2024/03/20 19:07:27;;;;;;;1.80;1.13;;;8.60;99.90;;;;;;8353719;28;20057;-84
2024/03/20 19:11:28;;;;;;;1.42;1.10;;;8.50;99.90;;;;;;8379540;28;20113;-84
2024/03/20 19:15:28;;;;;;;1.95;0.85;;;8.70;99.90;;;;;;8355473;28;20025;-85
2024/03/20 19:19:29;;;;;;;1.50;1.00;;;8.70;99.90;;;;;;8377514;28;20810;-84
2024/03/20 19:23:33;;;;;;;1.90;1.08;;;8.30;99.90;;;;;;8376794;28;20033;-85
2024/03/20 19:27:34;;;;;;;3.22;1.60;;;8.10;99.90;;;;;;8362162;28;20024;-85
2024/03/20 19:31:35;;;;;;;3.40;1.90;;;8.00;99.90;;;;;;8361448;28;20358;-85
2024/03/20 19:35:36;;;;;;;10.65;3.75;;;7.90;99.90;;;;;;8365259;28;20033;-84
2024/03/20 19:39:37;;;;;;;9.13;5.05;;;7.80;99.90;;;;;;8372872;28;20021;-85
2024/03/20 19:43:38;;;;;;;9.10;4.85;;;7.80;99.90;;;;;;8346128;28;20039;-86
2024/03/20 19:47:39;;;;;;;10.38;4.68;;;7.70;99.90;;;;;;8377180;28;20033;-85
2024/03/20 19:51:40;;;;;;;10.93;5.35;;;7.80;99.90;;;;;;8357423;28;20067;-85
2024/03/20 19:55:41;;;;;;;14.88;5.10;;;7.60;99.90;;;;;;8378176;28;20382;-85
2024/03/20 19:59:42;;;;;;;7.15;2.95;;;7.50;99.90;;;;;;8377434;28;20119;-85
2024/03/20 20:03:42;;;;;;;6.53;2.80;;;7.70;99.90;;;;;;8385223;28;20024;-85
2024/03/20 20:07:43;;;;;;;5.05;2.95;;;7.80;99.90;;;;;;8383344;28;20496;-86
2024/03/20 20:11:46;;;;;;;4.25;2.28;;;7.60;99.90;;;;;;8385714;28;20038;-85
2024/03/20 20:15:48;;;;;;;5.20;2.22;;;7.30;99.90;;;;;;8382365;28;20025;-85
2024/03/20 20:19:49;;;;;;;3.70;2.30;;;7.00;99.90;;;;;;8389482;28;20022;-85
2024/03/20 20:23:52;;;;;;;4.13;2.33;;;6.80;99.90;;;;;;8378941;28;20431;-85
2024/03/20 20:27:53;;;;;;;5.20;2.75;;;6.80;99.90;;;;;;8372752;28;20028;-85
2024/03/20 20:31:54;;;;;;;4.15;2.40;;;6.80;99.90;;;;;;8381177;28;20044;-85
2024/03/20 20:35:54;;;;;;;5.63;2.63;;;6.70;99.90;;;;;;8397087;28;20063;-85
2024/03/20 20:39:56;;;;;;;4.40;1.88;;;6.70;99.90;;;;;;8381042;28;20025;-85
2024/03/20 20:43:57;;;;;;;2.78;2.17;;;6.50;99.90;;;;;;8361084;28;20081;-85
2024/03/20 20:47:57;;;;;;;2.65;2.17;;;6.30;99.90;;;;;;8372484;28;20024;-85
2024/03/20 20:51:58;;;;;;;12.52;4.63;;;6.40;99.90;;;;;;8357404;28;20425;-85
2024/03/20 20:55:58;;;;;;;14.65;6.97;;;6.50;99.90;;;;;;8357598;28;20111;-84
2024/03/20 21:00:00;;;;;;;5.18;3.42;;;6.60;99.90;;;;;;8352398;28;20029;-84
2024/03/20 21:21:18;;;;;;;4.22;2.60;;;5.90;99.90;;;;;;8371662;28;20566;-84